createdAt,value
2019-04-10T00:01:20.569Z,99272.14
2019-04-10T00:03:51.413Z,99267.84
2019-04-10T00:06:22.101Z,99265.59
2019-04-10T00:08:53.160Z,99277.15
2019-04-10T00:11:23.512Z,99283.44
2019-04-10T00:13:53.956Z,99282.37
2019-04-10T00:16:25.053Z,99283.67
2019-04-10T00:18:56.133Z,99293.31
2019-04-10T00:21:26.912Z,99295.79
2019-04-10T00:23:57.710Z,99288.87
2019-04-10T00:26:28.668Z,99287.56
2019-04-10T00:29:00.223Z,99292.81
2019-04-10T00:31:31.807Z,99290.57
2019-04-10T00:34:02.872Z,99299.44
2019-04-10T00:36:33.710Z,99303.20
2019-04-10T00:39:04.640Z,99305.28
2019-04-10T00:41:36.538Z,99303.01
2019-04-10T00:44:07.829Z,99301.94
2019-04-10T00:46:38.795Z,99297.89
2019-04-10T00:49:09.630Z,99300.16
2019-04-10T00:51:40.335Z,99293.97
2019-04-10T00:54:11.919Z,99291.09
2019-04-10T00:56:43.362Z,99284.23
2019-04-10T00:59:14.429Z,99286.23
2019-04-10T01:01:45.724Z,99291.47
2019-04-10T01:04:16.505Z,99292.66
2019-04-10T01:06:48.189Z,99287.18
2019-04-10T01:09:19.477Z,99281.95
2019-04-10T01:11:51.629Z,99285.52
2019-04-10T01:14:23.395Z,99286.08
2019-04-10T01:16:56.276Z,99289.95
2019-04-10T01:19:26.710Z,99289.27
2019-04-10T01:21:58.916Z,99292.45
2019-04-10T01:24:30.054Z,99287.59
2019-04-10T01:27:01.354Z,99291.72
2019-04-10T01:29:32.260Z,99280.41
2019-04-10T01:32:03.661Z,99278.66
2019-04-10T01:34:35.807Z,99277.94
2019-04-10T01:37:06.771Z,99283.42
2019-04-10T01:39:38.098Z,99284.54
2019-04-10T01:42:08.554Z,99290.09
2019-04-10T01:44:40.646Z,99291.27
2019-04-10T01:47:11.448Z,99288.79
2019-04-10T01:49:42.218Z,99296.62
2019-04-10T01:52:13.243Z,99299.37
2019-04-10T01:54:45.508Z,99303.08
2019-04-10T01:57:16.696Z,99302.70
2019-04-10T01:59:47.907Z,99307.47
2019-04-10T02:02:27.350Z,99307.84
2019-04-10T02:04:58.464Z,99312.94
2019-04-10T02:07:29.930Z,99323.06
2019-04-10T02:10:01.629Z,99318.57
2019-04-10T02:12:32.612Z,99315.04
2019-04-10T02:15:03.507Z,99310.88
2019-04-10T02:17:35.531Z,99308.72
2019-04-10T02:20:08.158Z,99311.89
2019-04-10T02:22:38.682Z,99312.15
2019-04-10T02:25:11.601Z,99309.03
2019-04-10T02:27:42.638Z,99313.20
2019-04-10T02:30:17.561Z,99320.77
2019-04-10T02:32:49.804Z,99317.31
2019-04-10T02:35:22.064Z,99320.63
2019-04-10T02:37:55.394Z,99323.45
2019-04-10T02:40:25.582Z,99325.41
2019-04-10T02:42:56.700Z,99325.73
2019-04-10T02:45:27.349Z,99321.23
2019-04-10T02:47:59.373Z,99317.31
2019-04-10T02:50:31.272Z,99315.22
2019-04-10T02:53:03.361Z,99315.22
2019-04-10T02:55:35.580Z,99314.25
2019-04-10T02:58:07.933Z,99318.16
2019-04-10T03:00:38.771Z,99317.23
2019-04-10T03:03:09.571Z,99318.50
2019-04-10T03:05:40.643Z,99314.50
2019-04-10T03:08:13.071Z,99308.31
2019-04-10T03:10:51.770Z,99311.05
2019-04-10T03:13:17.915Z,99306.51
2019-04-10T03:15:49.842Z,99313.41
2019-04-10T03:18:21.700Z,99310.93
2019-04-10T03:20:52.625Z,99312.18
2019-04-10T03:23:23.272Z,99310.39
2019-04-10T03:25:54.072Z,99317.13
2019-04-10T03:28:25.022Z,99325.00
2019-04-10T03:30:58.072Z,99326.64
2019-04-10T03:33:39.682Z,99331.52
2019-04-10T03:36:09.562Z,99340.53
2019-04-10T03:38:54.206Z,99339.30
2019-04-10T03:41:13.749Z,99336.88
2019-04-10T03:43:45.827Z,99333.86
2019-04-10T03:46:19.368Z,99337.33
2019-04-10T03:48:50.018Z,99338.06
2019-04-10T03:51:20.777Z,99344.81
2019-04-10T03:53:51.518Z,99340.38
2019-04-10T03:56:23.395Z,99342.09
2019-04-10T03:58:54.316Z,99338.69
2019-04-10T04:01:26.952Z,99343.34
2019-04-10T04:03:59.401Z,99346.80
2019-04-10T04:06:30.040Z,99341.91
2019-04-10T04:09:07.774Z,99346.74
2019-04-10T04:11:34.705Z,99358.72
2019-04-10T04:14:06.208Z,99370.67
2019-04-10T04:16:37.400Z,99371.26
2019-04-10T04:19:10.142Z,99381.44
2019-04-10T04:21:41.836Z,99380.31
2019-04-10T04:24:12.785Z,99382.92
2019-04-10T04:26:43.737Z,99387.43
2019-04-10T04:29:14.490Z,99389.58
2019-04-10T04:31:45.226Z,99388.06
2019-04-10T04:34:15.864Z,99398.87
2019-04-10T04:36:48.915Z,99401.15
2019-04-10T04:39:24.925Z,99404.56
2019-04-10T04:41:52.127Z,99411.23
2019-04-10T04:44:24.672Z,99410.27
2019-04-10T04:46:55.275Z,99407.66
2019-04-10T04:49:26.416Z,99416.67
2019-04-10T04:51:58.149Z,99409.27
2019-04-10T04:54:29.086Z,99411.29
2019-04-10T04:57:00.220Z,99419.48
2019-04-10T04:59:30.856Z,99428.95
2019-04-10T05:02:03.620Z,99430.63
2019-04-10T05:04:35.551Z,99427.53
2019-04-10T05:07:08.373Z,99436.53
2019-04-10T05:09:40.632Z,99433.91
2019-04-10T05:12:11.581Z,99433.41
2019-04-10T05:14:42.291Z,99439.08
2019-04-10T05:17:15.084Z,99433.70
2019-04-10T05:19:46.861Z,99441.27
2019-04-10T05:22:18.747Z,99438.65
2019-04-10T05:24:49.875Z,99446.09
2019-04-10T05:27:20.577Z,99446.34
2019-04-10T05:29:51.307Z,99450.85
2019-04-10T05:32:23.357Z,99454.91
2019-04-10T05:34:55.784Z,99450.52
2019-04-10T05:37:33.785Z,99451.63
2019-04-10T05:40:05.492Z,99444.45
2019-04-10T05:42:37.419Z,99446.91
2019-04-10T05:45:09.224Z,99446.44
2019-04-10T05:47:40.272Z,99441.45
2019-04-10T05:50:10.905Z,99423.66
2019-04-10T05:52:41.648Z,99424.22
2019-04-10T05:55:12.418Z,99419.09
2019-04-10T05:57:43.025Z,99420.77
2019-04-10T06:00:16.730Z,99421.75
2019-04-10T06:02:48.154Z,99415.33
2019-04-10T06:05:20.198Z,99415.95
2019-04-10T06:07:51.623Z,99416.53
2019-04-10T06:10:22.269Z,99424.65
2019-04-10T06:12:53.109Z,99428.84
2019-04-10T06:15:23.597Z,99430.00
2019-04-10T06:17:54.510Z,99440.86
2019-04-10T06:20:26.163Z,99448.28
2019-04-10T06:22:56.956Z,99457.44
2019-04-10T06:25:28.732Z,99454.11
2019-04-10T06:28:01.096Z,99455.21
2019-04-10T06:30:32.271Z,99449.83
2019-04-10T06:33:04.038Z,99449.98
2019-04-10T06:35:35.594Z,99454.88
2019-04-10T06:38:06.463Z,99467.10
2019-04-10T06:40:37.642Z,99463.28
2019-04-10T06:43:08.661Z,99458.85
2019-04-10T06:45:39.917Z,99465.16
2019-04-10T06:48:12.973Z,99462.16
2019-04-10T06:50:44.767Z,99468.33
2019-04-10T06:53:18.546Z,99466.50
2019-04-10T06:55:49.408Z,99461.92
2019-04-10T06:58:20.124Z,99458.12
2019-04-10T07:00:53.054Z,99464.93
2019-04-10T07:03:23.395Z,99470.23
2019-04-10T07:06:06.218Z,99470.01
2019-04-10T07:08:27.639Z,99469.11
2019-04-10T07:11:04.734Z,99470.16
2019-04-10T07:13:30.687Z,99471.78
2019-04-10T07:16:02.153Z,99474.00
2019-04-10T07:18:35.792Z,99479.45
2019-04-10T07:21:08.371Z,99488.02
2019-04-10T07:23:39.231Z,99489.27
2019-04-10T07:26:10.385Z,99486.67
2019-04-10T07:28:43.950Z,99489.68
2019-04-10T07:31:13.436Z,99491.89
2019-04-10T07:33:45.147Z,99500.08
2019-04-10T07:36:16.855Z,99496.94
2019-04-10T07:38:47.249Z,99500.92
2019-04-10T07:41:21.380Z,99513.42
2019-04-10T07:43:55.065Z,99513.05
2019-04-10T07:46:23.991Z,99513.56
2019-04-10T07:48:54.639Z,99520.92
2019-04-10T07:51:25.636Z,99512.25
2019-04-10T07:53:56.266Z,99513.43
2019-04-10T07:56:27.820Z,99521.28
2019-04-10T07:58:58.517Z,99527.14
2019-04-10T08:01:29.201Z,99528.74
2019-04-10T08:07:31.725Z,99532.69
2019-04-10T08:10:01.333Z,99538.52
2019-04-10T08:12:39.510Z,99543.48
2019-04-10T08:15:04.917Z,99538.85
2019-04-10T08:17:36.732Z,99537.56
2019-04-10T08:20:07.980Z,99534.38
2019-04-10T08:22:39.305Z,99535.75
2019-04-10T08:25:10.941Z,99537.87
2019-04-10T08:27:41.813Z,99544.49
2019-04-10T08:30:12.973Z,99544.53
2019-04-10T08:32:53.524Z,99549.41
2019-04-10T08:35:17.353Z,99546.34
2019-04-10T08:37:48.721Z,99553.86
2019-04-10T08:40:21.061Z,99549.27
2019-04-10T08:42:52.681Z,99551.27
2019-04-10T08:45:23.500Z,99551.92
2019-04-10T08:47:54.297Z,99548.10
2019-04-10T08:50:26.002Z,99544.02
2019-04-10T08:52:57.924Z,99542.81
2019-04-10T08:55:28.509Z,99542.59
2019-04-10T08:58:00.773Z,99540.20
2019-04-10T09:00:32.355Z,99544.48
2019-04-10T09:03:02.799Z,99541.53
2019-04-10T09:05:33.469Z,99543.58
2019-04-10T09:08:04.561Z,99543.14
2019-04-10T09:10:35.046Z,99546.06
2019-04-10T09:13:06.586Z,99540.62
2019-04-10T09:15:38.215Z,99542.11
2019-04-10T09:18:11.229Z,99541.09
2019-04-10T09:20:42.694Z,99538.22
2019-04-10T09:23:26.295Z,99544.42
2019-04-10T09:25:49.150Z,99544.45
2019-04-10T09:28:19.831Z,99542.90
2019-04-10T09:30:51.323Z,99544.63
2019-04-10T09:33:26.742Z,99544.28
2019-04-10T09:35:55.088Z,99537.19
2019-04-10T09:38:26.589Z,99544.73
2019-04-10T09:40:57.360Z,99540.55
2019-04-10T09:43:27.955Z,99542.27
2019-04-10T09:45:58.700Z,99550.58
2019-04-10T09:48:29.268Z,99547.08
2019-04-10T09:51:00.265Z,99545.84
2019-04-10T09:53:30.914Z,99540.59
2019-04-10T09:56:01.487Z,99545.82
2019-04-10T09:58:32.022Z,99545.48
2019-04-10T10:01:04.842Z,99540.75
2019-04-10T10:03:36.634Z,99538.52
2019-04-10T10:06:07.432Z,99535.31
2019-04-10T10:08:38.085Z,99534.34
2019-04-10T10:11:09.590Z,99538.20
2019-04-10T10:13:40.173Z,99535.91
2019-04-10T10:16:11.182Z,99535.10
2019-04-10T10:18:41.815Z,99525.22
2019-04-10T10:21:12.478Z,99527.55
2019-04-10T10:23:44.687Z,99528.81
2019-04-10T10:26:15.857Z,99532.59
2019-04-10T10:28:47.099Z,99537.97
2019-04-10T10:31:18.279Z,99542.18
2019-04-10T10:33:50.036Z,99545.23
2019-04-10T10:36:22.030Z,99545.92
2019-04-10T10:39:03.588Z,99545.16
2019-04-10T10:41:26.414Z,99545.23
2019-04-10T10:43:57.115Z,99542.59
2019-04-10T10:46:27.688Z,99544.37
2019-04-10T10:48:58.111Z,99539.78
2019-04-10T10:51:28.941Z,99541.52
2019-04-10T10:54:03.108Z,99551.09
2019-04-10T10:56:34.147Z,99550.50
2019-04-10T10:59:06.106Z,99552.70
2019-04-10T11:01:37.965Z,99554.95
2019-04-10T11:04:08.852Z,99557.91
2019-04-10T11:06:51.539Z,99565.27
2019-04-10T11:09:15.770Z,99562.09
2019-04-10T11:11:47.096Z,99563.14
2019-04-10T11:14:17.646Z,99567.58
2019-04-10T11:16:49.488Z,99563.27
2019-04-10T11:19:21.129Z,99567.71
2019-04-10T11:21:51.556Z,99565.94
2019-04-10T11:24:23.192Z,99572.85
2019-04-10T11:26:54.043Z,99574.49
2019-04-10T11:29:24.762Z,99578.36
2019-04-10T11:31:55.698Z,99576.48
2019-04-10T11:34:26.527Z,99572.15
2019-04-10T11:39:33.079Z,99569.94
2019-04-10T11:42:02.396Z,99568.34
2019-04-10T11:44:34.754Z,99565.91
2019-04-10T11:47:09.509Z,99570.46
2019-04-10T11:49:44.388Z,99572.50
2019-04-10T11:52:14.579Z,99565.33
2019-04-10T11:54:46.901Z,99573.14
2019-04-10T11:57:20.428Z,99564.95
2019-04-10T11:59:51.019Z,99568.49
2019-04-10T12:02:25.003Z,99569.95
2019-04-10T12:04:59.191Z,99567.55
2019-04-10T12:07:55.024Z,99568.64
2019-04-10T12:12:31.837Z,99561.95
2019-04-10T12:15:03.886Z,99564.63
2019-04-10T12:17:36.052Z,99553.34
2019-04-10T12:20:08.902Z,99558.66
2019-04-10T12:22:40.596Z,99558.13
2019-04-10T12:25:12.377Z,99551.91
2019-04-10T12:27:43.376Z,99551.34
2019-04-10T12:30:15.288Z,99556.56
2019-04-10T12:32:47.492Z,99555.23
2019-04-10T12:35:18.075Z,99557.18
2019-04-10T12:37:57.827Z,99554.86
2019-04-10T12:40:21.518Z,99560.64
2019-04-10T12:42:52.493Z,99561.44
2019-04-10T12:45:24.327Z,99554.36
2019-04-10T12:47:54.942Z,99554.13
2019-04-10T12:50:25.277Z,99553.88
2019-04-10T12:52:56.694Z,99558.14
2019-04-10T12:55:28.322Z,99554.43
2019-04-10T12:58:06.538Z,99556.94
2019-04-10T13:00:34.479Z,99561.44
2019-04-10T13:03:05.515Z,99556.57
2019-04-10T13:05:37.521Z,99553.22
2019-04-10T13:08:19.124Z,99552.44
2019-04-10T13:10:45.585Z,99551.83
2019-04-10T13:13:16.022Z,99552.63
2019-04-10T13:15:47.693Z,99553.41
2019-04-10T13:18:20.451Z,99545.92
2019-04-10T13:20:50.973Z,99547.72
2019-04-10T13:23:22.488Z,99538.66
2019-04-10T13:25:58.365Z,99537.92
2019-04-10T13:28:27.646Z,99541.72
2019-04-10T13:30:59.507Z,99541.52
2019-04-10T13:33:30.963Z,99539.52
2019-04-10T13:36:01.379Z,99538.83
2019-04-10T13:38:33.906Z,99537.08
2019-04-10T13:41:04.649Z,99536.33
2019-04-10T13:43:38.081Z,99535.98
2019-04-10T13:46:09.192Z,99540.71
2019-04-10T13:48:39.815Z,99539.07
2019-04-10T13:51:11.126Z,99539.50
2019-04-10T13:53:42.429Z,99546.52
2019-04-10T13:56:13.030Z,99546.20
2019-04-10T13:58:44.581Z,99545.27
2019-04-10T14:01:20.569Z,99542.34
2019-04-10T14:03:52.430Z,99544.06
2019-04-10T14:06:23.071Z,99551.30
2019-04-10T14:09:07.790Z,99554.91
2019-04-10T14:11:27.048Z,99556.72
2019-04-10T14:13:57.764Z,99561.85
2019-04-10T14:16:28.787Z,99555.42
2019-04-10T14:18:59.390Z,99552.00
2019-04-10T14:21:31.135Z,99562.50
2019-04-10T14:24:04.089Z,99564.81
2019-04-10T14:26:58.026Z,99562.52
2019-04-10T14:29:30.138Z,99566.13
2019-04-10T14:32:03.356Z,99566.95
2019-04-10T14:34:34.515Z,99568.89
2019-04-10T14:37:07.296Z,99566.77
2019-04-10T14:39:37.736Z,99567.80
2019-04-10T14:42:10.575Z,99569.52
2019-04-10T14:44:41.074Z,99570.91
2019-04-10T14:47:13.420Z,99575.11
2019-04-10T14:49:45.154Z,99573.66
2019-04-10T14:52:17.179Z,99572.62
2019-04-10T14:54:48.306Z,99572.63
2019-04-10T14:57:20.967Z,99574.27
2019-04-10T14:59:52.535Z,99578.75
2019-04-10T15:02:24.404Z,99576.85
2019-04-10T15:04:56.002Z,99576.55
2019-04-10T15:07:26.809Z,99580.67
2019-04-10T15:09:58.105Z,99584.30
2019-04-10T15:12:30.138Z,99589.77
2019-04-10T15:15:01.736Z,99588.28
2019-04-10T15:17:32.909Z,99583.81
2019-04-10T15:20:05.687Z,99584.59
2019-04-10T15:22:36.416Z,99588.57
2019-04-10T15:25:08.845Z,99596.24
2019-04-10T15:27:39.645Z,99593.72
2019-04-10T15:30:10.549Z,99597.02
2019-04-10T15:32:42.155Z,99594.97
2019-04-10T15:35:12.981Z,99593.88
2019-04-10T15:37:43.312Z,99595.91
2019-04-10T15:40:20.806Z,99600.91
2019-04-10T15:42:48.665Z,99610.50
2019-04-10T15:45:19.672Z,99607.20
2019-04-10T15:47:54.138Z,99608.59
2019-04-10T15:50:22.844Z,99610.47
2019-04-10T15:52:53.736Z,99607.30
2019-04-10T15:55:25.783Z,99610.42
2019-04-10T15:57:59.126Z,99614.86
2019-04-10T16:00:29.463Z,99620.30
2019-04-10T16:03:00.757Z,99613.70
2019-04-10T16:05:31.508Z,99612.31
2019-04-10T16:08:02.974Z,99619.53
2019-04-10T16:10:55.149Z,99612.45
2019-04-10T16:13:57.004Z,99611.65
2019-04-10T16:16:50.835Z,99612.02
2019-04-10T16:19:51.400Z,99612.02
2019-04-10T16:22:51.111Z,99613.76
2019-04-10T16:25:31.184Z,99612.39
2019-04-10T16:28:04.134Z,99605.73
2019-04-10T16:30:35.343Z,99605.47
2019-04-10T16:33:07.218Z,99607.25
2019-04-10T16:35:38.390Z,99606.41
2019-04-10T16:38:09.296Z,99608.09
2019-04-10T16:40:40.485Z,99607.72
2019-04-10T16:43:11.733Z,99610.47
2019-04-10T16:45:42.622Z,99609.91
2019-04-10T16:48:14.774Z,99608.39
2019-04-10T16:50:45.839Z,99607.48
2019-04-10T16:53:18.028Z,99611.91
2019-04-10T16:55:49.939Z,99611.47
2019-04-10T16:58:20.726Z,99613.05
2019-04-10T17:00:51.182Z,99611.09
2019-04-10T17:03:21.862Z,99608.50
2019-04-10T17:05:53.629Z,99610.52
2019-04-10T17:08:24.734Z,99606.72
2019-04-10T17:10:57.076Z,99611.85
2019-04-10T17:13:28.779Z,99615.13
2019-04-10T17:16:01.629Z,99616.33
2019-04-10T17:18:32.942Z,99616.25
2019-04-10T17:21:04.785Z,99611.48
2019-04-10T17:23:36.427Z,99618.16
2019-04-10T17:26:08.684Z,99626.00
2019-04-10T17:28:40.719Z,99627.30
2019-04-10T17:31:11.529Z,99623.27
2019-04-10T17:33:43.924Z,99628.89
2019-04-10T17:36:14.407Z,99633.67
2019-04-10T17:38:46.799Z,99631.45
2019-04-10T17:41:17.727Z,99639.94
2019-04-10T17:43:49.538Z,99635.55
2019-04-10T17:46:20.375Z,99637.72
2019-04-10T17:48:51.659Z,99638.31
2019-04-10T17:51:22.704Z,99641.98
2019-04-10T17:53:53.999Z,99638.23
2019-04-10T17:56:24.370Z,99642.03
2019-04-10T17:58:56.060Z,99637.53
2019-04-10T18:01:27.660Z,99647.86
2019-04-10T18:04:01.775Z,99650.94
2019-04-10T18:06:31.433Z,99654.18
2019-04-10T18:09:02.294Z,99658.44
2019-04-10T18:11:34.637Z,99661.30
2019-04-10T18:14:06.923Z,99670.10
2019-04-10T18:16:40.036Z,99664.20
2019-04-10T18:19:14.142Z,99667.05
2019-04-10T18:21:44.363Z,99672.02
2019-04-10T18:24:15.788Z,99672.05
2019-04-10T18:26:50.475Z,99673.94
2019-04-10T18:29:21.407Z,99675.58
2019-04-10T18:31:52.185Z,99678.69
2019-04-10T18:34:22.853Z,99680.82
2019-04-10T18:36:54.568Z,99692.21
2019-04-10T18:39:26.153Z,99684.75
2019-04-10T18:41:59.321Z,99687.83
2019-04-10T18:44:29.124Z,99688.07
2019-04-10T18:47:00.667Z,99691.87
2019-04-10T18:49:31.721Z,99696.13
2019-04-10T18:52:03.349Z,99701.00
2019-04-10T18:54:34.092Z,99703.61
2019-04-10T18:57:05.364Z,99708.70
2019-04-10T18:59:44.865Z,99705.60
2019-04-10T19:02:34.902Z,99706.31
2019-04-10T19:05:31.845Z,99707.73
2019-04-10T19:08:03.189Z,99706.67
2019-04-10T19:10:38.922Z,99707.51
2019-04-10T19:13:09.702Z,99699.80
2019-04-10T19:15:41.633Z,99707.27
2019-04-10T19:18:13.274Z,99700.72
2019-04-10T19:20:43.892Z,99698.48
2019-04-10T19:23:14.977Z,99701.68
2019-04-10T19:25:46.997Z,99702.85
2019-04-10T19:28:28.015Z,99703.09
2019-04-10T19:31:09.640Z,99702.41
2019-04-10T19:33:28.990Z,99699.55
2019-04-10T19:35:59.695Z,99709.17
2019-04-10T19:38:31.510Z,99706.56
2019-04-10T19:41:02.656Z,99706.06
2019-04-10T19:43:34.484Z,99708.67
2019-04-10T19:46:06.184Z,99709.50
2019-04-10T19:48:36.933Z,99701.77
2019-04-10T19:51:08.049Z,99696.67
2019-04-10T19:53:39.513Z,99692.16
2019-04-10T19:56:10.932Z,99692.16
2019-04-10T19:58:41.903Z,99691.32
2019-04-10T20:01:12.782Z,99693.47
2019-04-10T20:03:43.858Z,99694.54
2019-04-10T20:06:14.395Z,99695.00
2019-04-10T20:08:45.954Z,99699.03
2019-04-10T20:11:16.992Z,99692.75
2019-04-10T20:13:47.414Z,99697.01
2019-04-10T20:16:17.919Z,99700.92
2019-04-10T20:18:48.723Z,99701.38
2019-04-10T20:21:19.651Z,99704.60
2019-04-10T20:23:50.495Z,99699.01
2019-04-10T20:26:21.093Z,99697.94
2019-04-10T20:28:51.856Z,99710.25
2019-04-10T20:31:29.292Z,99705.84
2019-04-10T20:34:00.260Z,99709.21
2019-04-10T20:36:31.182Z,99709.20
2019-04-10T20:39:03.060Z,99707.32
2019-04-10T20:41:44.789Z,99707.32
2019-04-10T20:44:07.263Z,99706.05
2019-04-10T20:46:38.200Z,99717.89
2019-04-10T20:49:09.907Z,99716.71
2019-04-10T20:51:44.069Z,99718.48
2019-04-10T20:54:14.836Z,99719.44
2019-04-10T20:56:45.147Z,99719.64
2019-04-10T20:59:15.642Z,99714.31
2019-04-10T21:01:47.009Z,99717.38
2019-04-10T21:04:17.586Z,99722.13
2019-04-10T21:06:48.212Z,99724.70
2019-04-10T21:09:19.133Z,99732.77
2019-04-10T21:11:59.731Z,99734.64
2019-04-10T21:14:21.829Z,99729.44
2019-04-10T21:16:52.529Z,99728.63
2019-04-10T21:19:24.756Z,99727.78
2019-04-10T21:21:55.881Z,99725.52
2019-04-10T21:24:27.434Z,99737.14
2019-04-10T21:26:59.053Z,99735.95
2019-04-10T21:30:03.880Z,99731.66
2019-04-10T21:32:49.987Z,99733.08
2019-04-10T21:35:25.339Z,99740.90
2019-04-10T21:37:56.919Z,99735.80
2019-04-10T21:40:27.386Z,99739.71
2019-04-10T21:42:58.264Z,99733.77
2019-04-10T21:45:29.838Z,99735.91
2019-04-10T21:48:00.511Z,99737.56
2019-04-10T21:50:31.472Z,99737.91
2019-04-10T21:53:01.980Z,99743.97
2019-04-10T21:55:32.856Z,99742.00
2019-04-10T21:58:03.882Z,99745.22
2019-04-10T22:00:52.653Z,99741.95
2019-04-10T22:03:23.739Z,99735.91
2019-04-10T22:06:05.699Z,99736.08
2019-04-10T22:08:41.913Z,99737.49
2019-04-10T22:11:12.826Z,99738.56
2019-04-10T22:13:44.443Z,99737.74
2019-04-10T22:16:17.873Z,99738.23
2019-04-10T22:18:48.431Z,99733.24
2019-04-10T22:21:18.676Z,99733.48
2019-04-10T22:23:49.285Z,99730.50
2019-04-10T22:26:20.067Z,99729.44
2019-04-10T22:28:50.560Z,99729.06
2019-04-10T22:31:21.159Z,99726.08
2019-04-10T22:33:52.349Z,99729.16
2019-04-10T22:36:23.021Z,99725.84
2019-04-10T22:38:55.120Z,99724.25
2019-04-10T22:41:30.636Z,99725.55
2019-04-10T22:43:58.364Z,99726.02
2019-04-10T22:46:29.942Z,99727.17
2019-04-10T22:49:00.572Z,99719.81
2019-04-10T22:51:31.180Z,99720.51
2019-04-10T22:54:02.554Z,99720.50
2019-04-10T22:56:33.675Z,99722.16
2019-04-10T22:59:05.941Z,99717.02
2019-04-10T23:01:37.602Z,99718.13
2019-04-10T23:04:08.191Z,99714.41
2019-04-10T23:06:39.648Z,99713.45
2019-04-10T23:09:12.232Z,99712.20
2019-04-10T23:11:45.378Z,99709.97
2019-04-10T23:14:14.808Z,99711.13
2019-04-10T23:16:46.100Z,99714.98
2019-04-10T23:19:16.842Z,99703.03
2019-04-10T23:21:49.064Z,99703.03
2019-04-10T23:24:19.896Z,99707.52
2019-04-10T23:26:50.642Z,99709.73
2019-04-10T23:29:22.346Z,99704.70
2019-04-10T23:31:54.260Z,99713.48
2019-04-10T23:34:26.173Z,99713.42
2019-04-10T23:36:56.754Z,99713.42
2019-04-10T23:39:28.207Z,99705.50
2019-04-10T23:41:59.069Z,99708.72
2019-04-10T23:44:29.696Z,99705.39
2019-04-10T23:47:00.380Z,99705.39
2019-04-10T23:49:30.969Z,99706.34
2019-04-10T23:52:01.477Z,99706.34
2019-04-10T23:54:33.241Z,99707.77
2019-04-10T23:57:03.819Z,99703.84
2019-04-10T23:59:35.034Z,99703.84
